createdAt,value
2019-05-07T00:00:54.117Z,98581.11
2019-05-07T00:03:22.566Z,98572.62
2019-05-07T00:05:53.661Z,98569.64
2019-05-07T00:08:22.905Z,98577.63
2019-05-07T00:10:52.962Z,98572.48
2019-05-07T00:13:22.764Z,98581.54
2019-05-07T00:15:52.805Z,98574.77
2019-05-07T00:18:23.008Z,98580.55
2019-05-07T00:20:52.942Z,98582.66
2019-05-07T00:23:23.219Z,98587.17
2019-05-07T00:25:52.940Z,98585.52
2019-05-07T00:28:23.071Z,98586.56
2019-05-07T00:30:52.180Z,98596.27
2019-05-07T00:33:22.721Z,98603.47
2019-05-07T00:35:58.655Z,98606.39
2019-05-07T00:38:31.849Z,98601.84
2019-05-07T00:41:35.057Z,98601.17
2019-05-07T00:44:04.775Z,98604.06
2019-05-07T00:46:33.557Z,98601.27
2019-05-07T00:49:02.443Z,98607.08
2019-05-07T00:51:33.343Z,98606.70
2019-05-07T00:54:03.478Z,98607.38
2019-05-07T00:56:33.218Z,98603.84
2019-05-07T00:59:02.311Z,98600.98
2019-05-07T01:01:32.462Z,98602.94
2019-05-07T01:04:02.648Z,98609.17
2019-05-07T01:06:33.063Z,98618.41
2019-05-07T01:09:03.903Z,98617.34
2019-05-07T01:11:33.556Z,98618.89
2019-05-07T01:14:02.830Z,98622.72
2019-05-07T01:16:32.945Z,98624.43
2019-05-07T01:19:02.182Z,98623.28
2019-05-07T01:21:32.434Z,98630.05
2019-05-07T01:24:03.197Z,98627.75
2019-05-07T01:26:32.961Z,98632.73
2019-05-07T01:29:02.937Z,98634.05
2019-05-07T01:31:49.179Z,98635.19
2019-05-07T01:34:32.438Z,98633.11
2019-05-07T01:37:02.725Z,98631.44
2019-05-07T01:39:32.655Z,98630.52
2019-05-07T01:42:02.140Z,98641.31
2019-05-07T01:44:32.587Z,98643.60
2019-05-07T01:47:02.571Z,98650.45
2019-05-07T01:49:32.960Z,98648.62
2019-05-07T01:52:02.611Z,98649.09
2019-05-07T01:54:33.272Z,98647.28
2019-05-07T01:57:02.809Z,98647.61
2019-05-07T01:59:32.282Z,98642.55
2019-05-07T02:02:07.498Z,98642.00
2019-05-07T02:04:55.246Z,98649.12
2019-05-07T02:07:45.721Z,98650.86
2019-05-07T02:10:29.494Z,98651.09
2019-05-07T02:12:57.997Z,98655.98
2019-05-07T02:15:26.503Z,98656.24
2019-05-07T02:17:54.982Z,98658.93
2019-05-07T02:20:23.446Z,98660.58
2019-05-07T02:22:53.270Z,98660.20
2019-05-07T02:25:22.174Z,98658.59
2019-05-07T02:27:52.781Z,98661.70
2019-05-07T02:30:23.620Z,98652.10
2019-05-07T02:32:53.974Z,98665.47
2019-05-07T02:35:23.537Z,98666.05
2019-05-07T02:38:13.875Z,98668.81
2019-05-07T02:40:53.635Z,98664.80
2019-05-07T02:43:22.811Z,98674.80
2019-05-07T02:46:29.389Z,98676.00
2019-05-07T02:49:09.670Z,98670.41
2019-05-07T02:51:44.266Z,98677.05
2019-05-07T02:54:43.554Z,98681.70
2019-05-07T02:57:16.602Z,98674.89
2019-05-07T02:59:44.056Z,98677.23
2019-05-07T03:02:13.942Z,98685.22
2019-05-07T03:04:43.506Z,98682.06
2019-05-07T03:07:13.244Z,98681.80
2019-05-07T03:09:43.147Z,98690.28
2019-05-07T03:12:13.082Z,98690.42
2019-05-07T03:14:43.799Z,98697.35
2019-05-07T03:17:13.247Z,98695.34
2019-05-07T03:19:44.684Z,98703.92
2019-05-07T03:22:14.067Z,98699.77
2019-05-07T03:24:53.410Z,98714.34
2019-05-07T03:27:23.505Z,98706.81
2019-05-07T03:30:03.842Z,98711.35
2019-05-07T03:32:42.305Z,98709.09
2019-05-07T03:35:26.611Z,98714.10
2019-05-07T03:37:54.706Z,98714.73
2019-05-07T03:40:23.317Z,98720.16
2019-05-07T03:42:53.516Z,98717.20
2019-05-07T03:45:53.718Z,98721.26
2019-05-07T03:48:23.851Z,98732.41
2019-05-07T03:50:53.265Z,98739.12
2019-05-07T03:53:23.091Z,98742.52
2019-05-07T03:55:53.728Z,98755.01
2019-05-07T03:58:23.556Z,98760.54
2019-05-07T04:00:53.650Z,98758.14
2019-05-07T04:03:24.506Z,98767.13
2019-05-07T04:05:53.440Z,98761.73
2019-05-07T04:08:23.619Z,98767.27
2019-05-07T04:10:53.805Z,98765.54
2019-05-07T04:13:23.860Z,98765.19
2019-05-07T04:15:53.062Z,98772.08
2019-05-07T04:18:23.637Z,98770.03
2019-05-07T04:20:54.040Z,98782.34
2019-05-07T04:23:23.294Z,98773.38
2019-05-07T04:26:17.991Z,98781.28
2019-05-07T04:28:54.864Z,98784.98
2019-05-07T04:31:25.275Z,98787.19
2019-05-07T04:33:55.788Z,98785.68
2019-05-07T04:36:29.128Z,98785.41
2019-05-07T04:38:57.732Z,98788.63
2019-05-07T04:41:26.265Z,98789.48
2019-05-07T04:43:54.711Z,98792.84
2019-05-07T04:46:23.803Z,98802.03
2019-05-07T04:48:53.040Z,98795.55
2019-05-07T04:51:28.759Z,98795.34
2019-05-07T04:53:57.264Z,98798.09
2019-05-07T04:56:25.890Z,98792.45
2019-05-07T04:58:54.391Z,98797.83
2019-05-07T05:01:24.810Z,98803.55
2019-05-07T05:03:54.227Z,98806.95
2019-05-07T05:06:24.156Z,98811.30
2019-05-07T05:08:56.078Z,98804.22
2019-05-07T05:11:23.900Z,98811.86
2019-05-07T05:13:53.308Z,98828.44
2019-05-07T05:16:23.125Z,98815.41
2019-05-07T05:18:52.341Z,98829.16
2019-05-07T05:21:38.910Z,98823.86
2019-05-07T05:24:12.604Z,98835.59
2019-05-07T05:26:41.897Z,98834.83
2019-05-07T05:29:12.149Z,98831.86
2019-05-07T05:31:42.124Z,98829.22
2019-05-07T05:34:12.850Z,98854.34
2019-05-07T05:36:42.504Z,98847.36
2019-05-07T05:39:13.167Z,98856.40
2019-05-07T05:41:44.081Z,98850.97
2019-05-07T05:44:18.637Z,98850.75
2019-05-07T05:46:47.125Z,98848.16
2019-05-07T05:49:15.628Z,98856.09
2019-05-07T05:51:52.373Z,98867.36
2019-05-07T05:54:42.457Z,98870.88
2019-05-07T05:57:39.342Z,98870.92
2019-05-07T06:00:27.798Z,98871.39
2019-05-07T06:03:16.036Z,98876.34
2019-05-07T06:06:04.307Z,98885.56
2019-05-07T06:08:52.492Z,98881.10
2019-05-07T06:11:32.179Z,98876.00
2019-05-07T06:14:22.193Z,98873.98
2019-05-07T06:16:59.004Z,98878.52
2019-05-07T06:19:42.393Z,98870.27
2019-05-07T06:22:32.924Z,98877.20
2019-05-07T06:25:06.120Z,98879.78
2019-05-07T06:27:34.706Z,98879.48
2019-05-07T06:30:05.052Z,98886.75
2019-05-07T06:32:33.660Z,98882.69
2019-05-07T06:35:03.087Z,98887.02
2019-05-07T06:37:32.230Z,98893.38
2019-05-07T06:40:26.673Z,98886.48
2019-05-07T06:43:09.141Z,98893.88
2019-05-07T06:45:43.576Z,98889.42
2019-05-07T06:48:12.775Z,98893.77
2019-05-07T06:50:55.736Z,98891.25
2019-05-07T06:53:28.885Z,98891.50
2019-05-07T06:55:58.460Z,98891.00
2019-05-07T06:58:34.184Z,98896.67
2019-05-07T07:01:16.984Z,98904.33
2019-05-07T07:04:02.581Z,98902.65
2019-05-07T07:06:52.524Z,98895.16
2019-05-07T07:09:27.912Z,98902.42
2019-05-07T07:11:59.082Z,98900.25
2019-05-07T07:14:27.698Z,98898.48
2019-05-07T07:16:56.087Z,98908.38
2019-05-07T07:19:24.662Z,98905.59
2019-05-07T07:21:53.147Z,98906.80
2019-05-07T07:24:22.310Z,98904.70
2019-05-07T07:26:52.776Z,98909.77
2019-05-07T07:29:23.645Z,98911.97
2019-05-07T07:31:55.835Z,98899.40
2019-05-07T07:34:25.341Z,98908.08
2019-05-07T07:37:06.060Z,98900.12
2019-05-07T07:39:32.340Z,98907.45
2019-05-07T07:42:03.001Z,98908.47
2019-05-07T07:44:32.965Z,98900.95
2019-05-07T07:47:02.583Z,98910.58
2019-05-07T07:49:32.908Z,98901.84
2019-05-07T07:52:03.196Z,98912.30
2019-05-07T07:54:32.281Z,98911.97
2019-05-07T07:57:21.810Z,98907.53
2019-05-07T08:00:08.611Z,98905.61
2019-05-07T08:02:42.527Z,98907.91
2019-05-07T08:05:12.506Z,98912.27
2019-05-07T08:07:42.593Z,98902.88
2019-05-07T08:10:12.841Z,98912.41
2019-05-07T08:12:42.172Z,98903.87
2019-05-07T08:15:18.110Z,98897.00
2019-05-07T08:17:42.900Z,98902.77
2019-05-07T08:20:12.790Z,98914.31
2019-05-07T08:22:42.289Z,98907.70
2019-05-07T08:25:12.486Z,98910.83
2019-05-07T08:27:41.974Z,98908.89
2019-05-07T08:30:14.413Z,98920.09
2019-05-07T08:33:02.014Z,98931.88
2019-05-07T08:35:36.280Z,98919.48
2019-05-07T08:38:04.878Z,98916.47
2019-05-07T08:40:33.414Z,98915.72
2019-05-07T08:43:03.285Z,98918.73
2019-05-07T08:45:52.233Z,98910.66
2019-05-07T08:48:25.391Z,98907.47
2019-05-07T08:50:53.822Z,98907.60
2019-05-07T08:53:22.607Z,98913.53
2019-05-07T08:55:52.656Z,98908.09
2019-05-07T08:58:22.399Z,98894.89
2019-05-07T09:00:52.279Z,98903.02
2019-05-07T09:03:39.560Z,98903.80
2019-05-07T09:06:08.052Z,98898.04
2019-05-07T09:08:37.131Z,98897.42
2019-05-07T09:11:05.712Z,98919.85
2019-05-07T09:13:34.317Z,98911.45
2019-05-07T09:16:03.059Z,98907.69
2019-05-07T09:18:32.266Z,98917.52
2019-05-07T09:21:02.176Z,98914.41
2019-05-07T09:23:31.959Z,98921.89
2019-05-07T09:26:02.602Z,98903.74
2019-05-07T09:28:49.382Z,98916.03
2019-05-07T09:31:25.232Z,98907.56
2019-05-07T09:33:53.798Z,98900.98
2019-05-07T09:36:28.449Z,98899.09
2019-05-07T09:38:59.286Z,98903.23
2019-05-07T09:41:27.655Z,98896.60
2019-05-07T09:43:57.071Z,98898.94
2019-05-07T09:46:25.873Z,98907.83
2019-05-07T09:48:54.535Z,98910.66
2019-05-07T09:51:23.173Z,98918.91
2019-05-07T09:53:52.047Z,98922.69
2019-05-07T09:56:22.471Z,98909.78
2019-05-07T09:58:53.043Z,98910.31
2019-05-07T10:01:23.657Z,98914.92
2019-05-07T10:03:52.301Z,98903.00
2019-05-07T10:06:22.804Z,98904.56
2019-05-07T10:08:52.395Z,98907.87
2019-05-07T10:11:29.294Z,98912.77
2019-05-07T10:14:04.201Z,98918.95
2019-05-07T10:16:42.435Z,98911.23
2019-05-07T10:19:11.049Z,98911.87
2019-05-07T10:21:39.639Z,98917.81
2019-05-07T10:24:08.686Z,98909.27
2019-05-07T10:26:40.112Z,98920.28
2019-05-07T10:29:08.946Z,98918.36
2019-05-07T10:31:37.578Z,98917.91
2019-05-07T10:34:06.086Z,98917.15
2019-05-07T10:36:34.726Z,98912.13
2019-05-07T10:39:05.970Z,98910.02
2019-05-07T10:41:34.544Z,98916.67
2019-05-07T10:44:03.694Z,98914.85
2019-05-07T10:46:47.373Z,98912.74
2019-05-07T10:49:22.659Z,98907.24
2019-05-07T10:51:51.810Z,98908.36
2019-05-07T10:54:21.855Z,98907.52
2019-05-07T10:56:52.445Z,98907.91
2019-05-07T10:59:22.498Z,98908.59
2019-05-07T11:01:58.065Z,98913.59
2019-05-07T11:04:39.242Z,98914.57
2019-05-07T11:06:57.018Z,98924.72
2019-05-07T11:09:25.732Z,98914.50
2019-05-07T11:11:54.405Z,98919.36
2019-05-07T11:14:22.903Z,98936.89
2019-05-07T11:17:03.256Z,98928.80
2019-05-07T11:19:32.440Z,98919.44
2019-05-07T11:22:01.116Z,98919.00
2019-05-07T11:24:29.712Z,98926.92
2019-05-07T11:26:58.349Z,98932.61
2019-05-07T11:29:26.980Z,98938.09
2019-05-07T11:31:55.643Z,98931.20
2019-05-07T11:34:24.245Z,98936.00
2019-05-07T11:36:52.840Z,98919.41
2019-05-07T11:39:22.687Z,98933.45
2019-05-07T11:42:13.771Z,98932.79
2019-05-07T11:44:42.561Z,98958.40
2019-05-07T11:47:22.686Z,98926.11
2019-05-07T11:50:11.981Z,98931.24
2019-05-07T11:52:42.982Z,98935.14
2019-05-07T11:55:12.106Z,98930.78
2019-05-07T11:57:44.176Z,98930.05
2019-05-07T12:00:21.900Z,98908.15
2019-05-07T12:02:51.921Z,98924.72
2019-05-07T12:05:22.566Z,98933.08
2019-05-07T12:07:51.102Z,98931.08
2019-05-07T12:10:19.713Z,98924.13
2019-05-07T12:12:48.424Z,98922.61
2019-05-07T12:15:17.568Z,98916.38
2019-05-07T12:17:46.402Z,98925.67
2019-05-07T12:20:15.898Z,98933.92
2019-05-07T12:22:47.873Z,98924.86
2019-05-07T12:25:18.136Z,98938.05
2019-05-07T12:27:48.592Z,98938.62
2019-05-07T12:30:26.164Z,98941.69
2019-05-07T12:33:04.558Z,98936.46
2019-05-07T12:35:33.282Z,98936.81
2019-05-07T12:38:02.216Z,98938.22
2019-05-07T12:40:32.522Z,98943.90
2019-05-07T12:43:01.956Z,98936.81
2019-05-07T12:45:31.366Z,98942.16
2019-05-07T12:48:02.244Z,98947.80
2019-05-07T12:50:32.273Z,98934.41
2019-05-07T12:53:12.345Z,98954.84
2019-05-07T12:55:45.637Z,98940.95
2019-05-07T12:58:14.143Z,98947.61
2019-05-07T13:01:05.450Z,98951.89
2019-05-07T13:04:11.468Z,98956.55
2019-05-07T13:06:48.478Z,98966.03
2019-05-07T13:09:16.896Z,98963.89
2019-05-07T13:11:45.612Z,98969.41
2019-05-07T13:14:14.488Z,98964.68
2019-05-07T13:16:42.992Z,98971.31
2019-05-07T13:19:13.215Z,98983.57
2019-05-07T13:21:49.074Z,98988.03
2019-05-07T13:24:14.928Z,98991.61
2019-05-07T13:26:43.047Z,98991.08
2019-05-07T13:29:12.777Z,98994.78
2019-05-07T13:31:42.487Z,99004.71
2019-05-07T13:34:12.315Z,99009.22
2019-05-07T13:36:44.864Z,98994.48
2019-05-07T13:39:42.940Z,99005.75
2019-05-07T13:42:31.984Z,98999.28
2019-05-07T13:45:13.188Z,99012.25
2019-05-07T13:47:42.625Z,99016.83
2019-05-07T13:50:12.004Z,99011.59
2019-05-07T13:52:43.152Z,99005.54
2019-05-07T13:55:12.848Z,99012.84
2019-05-07T13:57:41.749Z,99016.14
2019-05-07T14:00:16.707Z,99024.30
2019-05-07T14:02:45.318Z,99024.73
2019-05-07T14:05:14.441Z,99023.22
2019-05-07T14:07:43.575Z,99033.31
2019-05-07T14:10:12.838Z,99032.63
2019-05-07T14:12:42.581Z,99043.30
2019-05-07T14:15:12.915Z,99039.30
2019-05-07T14:17:41.654Z,99054.45
2019-05-07T14:20:12.951Z,99034.83
2019-05-07T14:22:42.461Z,99050.47
2019-05-07T14:25:11.820Z,99042.69
2019-05-07T14:27:42.698Z,99042.89
2019-05-07T14:30:13.010Z,99054.73
2019-05-07T14:32:52.436Z,99061.27
2019-05-07T14:35:53.882Z,99050.89
2019-05-07T14:38:26.371Z,99052.18
2019-05-07T14:40:54.967Z,99065.63
2019-05-07T14:43:32.470Z,99067.18
2019-05-07T14:46:02.709Z,99073.72
2019-05-07T14:48:35.940Z,99076.19
2019-05-07T14:51:03.826Z,99074.00
2019-05-07T14:53:32.918Z,99077.58
2019-05-07T14:56:01.887Z,99078.89
2019-05-07T14:58:31.886Z,99080.80
2019-05-07T15:01:02.416Z,99075.03
2019-05-07T15:03:31.919Z,99091.68
2019-05-07T15:06:02.057Z,99098.78
2019-05-07T15:08:32.313Z,99102.14
2019-05-07T15:11:02.731Z,99088.27
2019-05-07T15:13:32.318Z,99113.38
2019-05-07T15:16:03.110Z,99110.69
2019-05-07T15:18:52.931Z,99101.27
2019-05-07T15:21:22.234Z,99118.22
2019-05-07T15:23:53.699Z,99130.39
2019-05-07T15:26:22.380Z,99142.77
2019-05-07T15:29:12.031Z,99132.94
2019-05-07T15:32:15.291Z,99128.78
2019-05-07T15:34:44.038Z,99144.41
2019-05-07T15:37:12.955Z,99142.30
2019-05-07T15:39:42.155Z,99147.14
2019-05-07T15:42:11.073Z,99159.36
2019-05-07T15:44:39.675Z,99163.92
2019-05-07T15:47:13.136Z,99161.75
2019-05-07T15:49:41.883Z,99162.09
2019-05-07T15:52:17.370Z,99170.58
2019-05-07T15:54:46.167Z,99179.67
2019-05-07T15:57:18.737Z,99180.68
2019-05-07T15:59:49.961Z,99179.92
2019-05-07T16:02:29.100Z,99195.52
2019-05-07T16:04:57.748Z,99196.61
2019-05-07T16:07:26.193Z,99198.98
2019-05-07T16:09:54.989Z,99212.64
2019-05-07T16:12:23.730Z,99203.70
2019-05-07T16:14:52.643Z,99213.09
2019-05-07T16:17:34.867Z,99221.30
2019-05-07T16:20:04.644Z,99225.93
2019-05-07T16:22:37.630Z,99241.38
2019-05-07T16:25:07.439Z,99242.12
2019-05-07T16:27:42.194Z,99248.80
2019-05-07T16:30:14.346Z,99242.79
2019-05-07T16:32:42.875Z,99250.08
2019-05-07T16:35:12.430Z,99245.38
2019-05-07T16:37:42.853Z,99242.02
2019-05-07T16:40:12.822Z,99243.91
2019-05-07T16:42:42.832Z,99240.05
2019-05-07T16:45:13.190Z,99253.77
2019-05-07T16:47:42.236Z,99253.64
2019-05-07T16:50:13.028Z,99259.02
2019-05-07T16:52:42.128Z,99262.08
2019-05-07T16:55:12.453Z,99264.69
2019-05-07T16:58:01.899Z,99279.09
2019-05-07T17:00:37.960Z,99277.86
2019-05-07T17:03:11.615Z,99284.55
2019-05-07T17:05:40.146Z,99283.85
2019-05-07T17:08:42.294Z,99296.44
2019-05-07T17:11:12.107Z,99293.37
2019-05-07T17:13:42.422Z,99297.21
2019-05-07T17:16:12.317Z,99322.88
2019-05-07T17:18:41.056Z,99298.88
2019-05-07T17:21:12.207Z,99310.64
2019-05-07T17:23:44.380Z,99300.03
2019-05-07T17:26:11.751Z,99304.88
2019-05-07T17:28:42.606Z,99314.52
2019-05-07T17:31:12.417Z,99309.34
2019-05-07T17:33:42.461Z,99314.06
2019-05-07T17:36:12.087Z,99326.88
2019-05-07T17:38:42.850Z,99338.35
2019-05-07T17:41:20.098Z,99351.05
2019-05-07T17:43:42.377Z,99350.97
2019-05-07T17:46:12.258Z,99355.48
2019-05-07T17:48:42.857Z,99355.77
2019-05-07T17:51:33.947Z,99357.67
2019-05-07T17:54:02.661Z,99357.56
2019-05-07T17:56:32.080Z,99365.19
2019-05-07T17:59:02.871Z,99368.03
2019-05-07T18:01:50.183Z,99373.20
2019-05-07T18:04:19.391Z,99371.41
2019-05-07T18:06:48.056Z,99371.88
2019-05-07T18:09:16.551Z,99372.45
2019-05-07T18:11:45.032Z,99379.62
2019-05-07T18:14:13.656Z,99387.42
2019-05-07T18:17:02.158Z,99395.80
2019-05-07T18:19:33.123Z,99398.89
2019-05-07T18:22:02.674Z,99402.78
2019-05-07T18:24:32.622Z,99413.61
2019-05-07T18:27:03.821Z,99408.98
2019-05-07T18:29:32.627Z,99416.13
2019-05-07T18:32:02.866Z,99413.78
2019-05-07T18:34:32.124Z,99421.59
2019-05-07T18:37:02.982Z,99428.94
2019-05-07T18:39:32.459Z,99425.38
2019-05-07T18:42:02.752Z,99432.36
2019-05-07T18:44:31.923Z,99430.83
2019-05-07T18:47:02.392Z,99424.16
2019-05-07T18:49:31.336Z,99430.94
2019-05-07T18:51:59.846Z,99427.14
2019-05-07T18:54:31.270Z,99429.33
2019-05-07T18:56:59.113Z,99421.87
2019-05-07T18:59:31.680Z,99417.75
2019-05-07T19:02:02.300Z,99423.41
2019-05-07T19:04:32.771Z,99422.37
2019-05-07T19:07:02.582Z,99421.30
2019-05-07T19:09:32.155Z,99421.11
2019-05-07T19:12:01.299Z,99423.64
2019-05-07T19:14:33.137Z,99419.03
2019-05-07T19:17:03.021Z,99434.48
2019-05-07T19:19:32.805Z,99428.46
2019-05-07T19:22:02.235Z,99425.75
2019-05-07T19:24:44.619Z,99426.78
2019-05-07T19:27:02.310Z,99426.28
2019-05-07T19:29:32.621Z,99427.44
2019-05-07T19:32:03.207Z,99430.72
2019-05-07T19:34:32.771Z,99439.55
2019-05-07T19:37:02.547Z,99438.83
2019-05-07T19:39:32.440Z,99439.09
2019-05-07T19:42:02.533Z,99435.45
2019-05-07T19:44:31.625Z,99442.53
2019-05-07T19:47:02.022Z,99442.91
2019-05-07T19:49:32.478Z,99446.84
2019-05-07T19:52:01.809Z,99446.14
2019-05-07T19:54:32.377Z,99446.73
2019-05-07T19:57:02.748Z,99453.79
2019-05-07T19:59:32.665Z,99453.47
2019-05-07T20:02:03.234Z,99453.20
2019-05-07T20:04:32.197Z,99460.19
2019-05-07T20:07:02.779Z,99451.99
2019-05-07T20:09:34.382Z,99450.15
2019-05-07T20:12:03.598Z,99456.67
2019-05-07T20:14:33.179Z,99454.05
2019-05-07T20:17:02.176Z,99453.47
2019-05-07T20:19:32.680Z,99447.16
2019-05-07T20:22:02.178Z,99448.31
2019-05-07T20:24:32.585Z,99450.80
2019-05-07T20:27:03.030Z,99445.72
2019-05-07T20:29:32.446Z,99450.27
2019-05-07T20:32:01.045Z,99453.66
2019-05-07T20:34:29.703Z,99455.09
2019-05-07T20:36:58.191Z,99468.95
2019-05-07T20:39:26.769Z,99474.86
2019-05-07T20:41:55.645Z,99484.11
2019-05-07T20:44:24.526Z,99476.16
2019-05-07T20:46:53.673Z,99473.21
2019-05-07T20:49:22.647Z,99468.77
2019-05-07T20:51:52.662Z,99471.80
2019-05-07T20:54:32.570Z,99472.39
2019-05-07T20:57:06.735Z,99470.45
2019-05-07T20:59:35.527Z,99469.36
2019-05-07T21:02:04.106Z,99470.09
2019-05-07T21:04:33.125Z,99462.62
2019-05-07T21:07:02.216Z,99453.11
2019-05-07T21:09:32.894Z,99452.09
2019-05-07T21:12:02.805Z,99453.48
2019-05-07T21:14:32.435Z,99454.95
2019-05-07T21:17:01.432Z,99450.19
2019-05-07T21:19:30.137Z,99454.06
2019-05-07T21:21:58.718Z,99451.34
2019-05-07T21:24:27.313Z,99450.63
2019-05-07T21:26:55.949Z,99450.70
2019-05-07T21:29:24.612Z,99466.61
2019-05-07T21:31:53.092Z,99466.92
2019-05-07T21:34:23.026Z,99470.28
2019-05-07T21:36:52.426Z,99465.58
2019-05-07T21:39:22.326Z,99468.73
2019-05-07T21:41:51.967Z,99472.12
2019-05-07T21:44:22.735Z,99470.02
2019-05-07T21:46:51.859Z,99472.86
2019-05-07T21:49:22.300Z,99470.64
2019-05-07T21:51:52.303Z,99472.86
2019-05-07T21:54:43.490Z,99456.92
2019-05-07T21:57:45.627Z,99464.42
2019-05-07T22:00:22.254Z,99468.58
2019-05-07T22:02:52.559Z,99473.41
2019-05-07T22:05:22.435Z,99481.05
2019-05-07T22:07:54.146Z,99472.39
2019-05-07T22:10:22.316Z,99471.00
2019-05-07T22:12:52.009Z,99467.38
2019-05-07T22:15:22.443Z,99471.83
2019-05-07T22:17:52.076Z,99466.11
2019-05-07T22:20:20.983Z,99478.78
2019-05-07T22:22:49.665Z,99477.18
2019-05-07T22:25:18.267Z,99482.06
2019-05-07T22:27:46.884Z,99485.85
2019-05-07T22:30:23.319Z,99490.33
2019-05-07T22:33:02.873Z,99487.81
2019-05-07T22:35:34.648Z,99491.70
2019-05-07T22:38:03.876Z,99488.66
2019-05-07T22:40:32.792Z,99483.64
2019-05-07T22:43:02.188Z,99490.17
2019-05-07T22:45:32.231Z,99489.15
2019-05-07T22:48:02.828Z,99489.80
2019-05-07T22:50:33.176Z,99490.38
2019-05-07T22:53:02.104Z,99502.81
2019-05-07T22:55:32.678Z,99502.49
2019-05-07T22:58:06.097Z,99496.37
2019-05-07T23:00:42.548Z,99499.36
2019-05-07T23:03:12.327Z,99508.52
2019-05-07T23:05:42.215Z,99502.11
2019-05-07T23:08:12.804Z,99510.23
2019-05-07T23:10:42.156Z,99505.25
2019-05-07T23:13:12.991Z,99503.89
2019-05-07T23:15:42.926Z,99501.08
2019-05-07T23:18:13.021Z,99498.68
2019-05-07T23:20:42.725Z,99500.18
2019-05-07T23:23:13.868Z,99507.66
2019-05-07T23:25:43.128Z,99501.75
2019-05-07T23:28:12.554Z,99510.95
2019-05-07T23:30:42.167Z,99502.23
2019-05-07T23:33:12.140Z,99509.28
2019-05-07T23:35:42.160Z,99505.16
2019-05-07T23:38:12.240Z,99506.09
2019-05-07T23:41:04.019Z,99506.02
2019-05-07T23:43:33.336Z,99501.72
2019-05-07T23:46:02.255Z,99499.59
2019-05-07T23:48:32.120Z,99497.30
2019-05-07T23:51:02.087Z,99502.75
2019-05-07T23:53:31.108Z,99502.30
2019-05-07T23:55:59.766Z,99503.83
2019-05-07T23:58:28.376Z,99507.61
